createdAt,value
2023-02-21T00:02:35.965Z,9.48
2023-02-21T00:05:21.385Z,10.00
2023-02-21T00:08:06.468Z,9.93
2023-02-21T00:10:51.673Z,9.66
2023-02-21T00:13:36.944Z,9.96
2023-02-21T00:16:21.964Z,9.46
2023-02-21T00:19:06.799Z,9.86
2023-02-21T00:21:51.988Z,9.94
2023-02-21T00:24:38.166Z,9.61
2023-02-21T00:27:23.885Z,9.52
2023-02-21T00:30:09.859Z,9.20
2023-02-21T00:32:55.058Z,9.89
2023-02-21T00:35:40.441Z,9.44
2023-02-21T00:38:26.717Z,9.93
2023-02-21T00:41:12.224Z,9.95
2023-02-21T00:43:57.546Z,9.92
2023-02-21T00:46:42.867Z,9.84
2023-02-21T00:49:27.986Z,9.43
2023-02-21T00:52:13.015Z,9.93
2023-02-21T00:54:58.195Z,9.85
2023-02-21T00:57:43.185Z,9.35
2023-02-21T01:00:34.435Z,9.86
2023-02-21T01:03:19.742Z,9.84
2023-02-21T01:06:05.106Z,9.84
2023-02-21T01:08:50.228Z,9.77
2023-02-21T01:11:37.957Z,9.75
2023-02-21T01:14:24.042Z,9.70
2023-02-21T01:17:13.450Z,9.86
2023-02-21T01:19:59.903Z,9.81
2023-02-21T01:22:45.940Z,9.40
2023-02-21T01:25:33.193Z,9.86
2023-02-21T01:28:18.448Z,9.77
2023-02-21T01:31:03.663Z,9.82
2023-02-21T01:33:56.805Z,9.86
2023-02-21T01:36:41.925Z,9.83
2023-02-21T01:39:26.963Z,9.84
2023-02-21T01:42:12.196Z,9.85
2023-02-21T01:45:00.567Z,9.86
2023-02-21T01:47:46.806Z,9.35
2023-02-21T01:50:50.610Z,9.77
2023-02-21T01:53:39.723Z,9.75
2023-02-21T01:56:25.868Z,9.81
2023-02-21T01:59:14.102Z,9.34
2023-02-21T02:02:20.511Z,9.82
2023-02-21T02:05:08.911Z,9.40
2023-02-21T02:07:55.767Z,9.75
2023-02-21T02:10:41.980Z,9.72
2023-02-21T02:13:27.484Z,9.74
2023-02-21T02:15:54.002Z,9.67
2023-02-21T02:18:37.896Z,9.19
2023-02-21T02:21:46.047Z,9.62
2023-02-21T02:24:43.529Z,9.63
2023-02-21T02:27:37.648Z,9.61
2023-02-21T02:30:44.645Z,9.62
2023-02-21T02:33:26.373Z,9.74
2023-02-21T02:36:21.163Z,9.66
2023-02-21T02:38:59.878Z,9.65
2023-02-21T02:41:44.130Z,9.56
2023-02-21T02:44:28.355Z,9.60
2023-02-21T02:46:59.303Z,9.18
2023-02-21T02:49:29.527Z,9.58
2023-02-21T02:52:03.993Z,9.53
2023-02-21T02:54:31.497Z,9.57
2023-02-21T02:56:59.323Z,9.54
2023-02-21T02:59:29.912Z,9.54
2023-02-21T03:02:12.844Z,9.60
2023-02-21T03:05:16.187Z,9.53
2023-02-21T03:08:14.352Z,9.50
2023-02-21T03:10:54.306Z,9.48
2023-02-21T03:13:36.400Z,9.57
2023-02-21T03:16:17.719Z,9.38
2023-02-21T03:18:51.114Z,9.14
2023-02-21T03:21:24.803Z,9.04
2023-02-21T03:23:54.340Z,9.50
2023-02-21T03:26:21.106Z,9.40
2023-02-21T03:28:54.952Z,9.55
2023-02-21T03:31:26.178Z,9.56
2023-02-21T03:33:53.362Z,9.01
2023-02-21T03:36:20.818Z,9.05
2023-02-21T03:38:47.846Z,9.15
2023-02-21T03:41:15.657Z,9.53
2023-02-21T03:43:42.510Z,9.55
2023-02-21T03:46:09.037Z,9.55
2023-02-21T03:48:36.211Z,9.20
2023-02-21T03:51:14.350Z,9.53
2023-02-21T03:53:41.059Z,9.20
2023-02-21T03:56:09.104Z,9.53
2023-02-21T03:58:52.939Z,9.51
2023-02-21T04:01:19.575Z,9.44
2023-02-21T04:03:46.424Z,9.51
2023-02-21T04:06:13.746Z,9.52
2023-02-21T04:08:40.502Z,8.71
2023-02-21T04:11:07.443Z,9.48
2023-02-21T04:13:35.877Z,9.47
2023-02-21T04:16:03.040Z,9.02
2023-02-21T04:18:30.475Z,9.48
2023-02-21T04:21:00.225Z,9.42
2023-02-21T04:23:26.896Z,9.45
2023-02-21T04:25:53.491Z,9.43
2023-02-21T04:28:30.229Z,9.05
2023-02-21T04:30:57.011Z,9.38
2023-02-21T04:33:23.910Z,9.41
2023-02-21T04:35:50.827Z,9.39
2023-02-21T04:38:24.167Z,9.33
2023-02-21T04:40:51.010Z,8.96
2023-02-21T04:43:17.692Z,9.35
2023-02-21T04:45:44.284Z,9.43
2023-02-21T04:48:10.840Z,9.47
2023-02-21T04:50:37.413Z,9.08
2023-02-21T04:53:04.159Z,9.42
2023-02-21T04:55:30.670Z,9.40
2023-02-21T04:57:57.188Z,9.47
2023-02-21T05:00:23.818Z,9.37
2023-02-21T05:02:50.353Z,9.47
2023-02-21T05:05:17.024Z,9.43
2023-02-21T05:07:44.185Z,9.46
2023-02-21T05:10:11.682Z,8.96
2023-02-21T05:12:39.778Z,9.45
2023-02-21T05:15:07.369Z,9.46
2023-02-21T05:17:34.032Z,9.44
2023-02-21T05:20:01.132Z,9.46
2023-02-21T05:22:27.620Z,9.34
2023-02-21T05:24:54.097Z,9.41
2023-02-21T05:27:22.239Z,8.83
2023-02-21T05:29:50.152Z,9.33
2023-02-21T05:32:18.024Z,8.91
2023-02-21T05:34:46.862Z,9.35
2023-02-21T05:37:17.655Z,9.34
2023-02-21T05:39:44.249Z,9.36
2023-02-21T05:42:11.222Z,9.31
2023-02-21T05:44:37.741Z,9.34
2023-02-21T05:47:04.378Z,8.87
2023-02-21T05:49:30.916Z,9.37
2023-02-21T05:51:57.446Z,9.35
2023-02-21T05:54:24.058Z,9.34
2023-02-21T05:56:52.200Z,9.33
2023-02-21T05:59:20.512Z,9.22
2023-02-21T06:01:50.345Z,9.12
2023-02-21T06:04:17.630Z,9.30
2023-02-21T06:06:44.613Z,9.30
2023-02-21T06:09:11.569Z,8.84
2023-02-21T06:11:40.313Z,9.29
2023-02-21T06:14:13.432Z,8.76
2023-02-21T06:16:39.984Z,9.23
2023-02-21T06:19:08.673Z,9.19
2023-02-21T06:21:36.963Z,9.32
2023-02-21T06:24:04.715Z,9.11
2023-02-21T06:26:31.346Z,9.22
2023-02-21T06:28:57.921Z,9.19
2023-02-21T06:31:25.121Z,9.20
2023-02-21T06:33:51.916Z,8.74
2023-02-21T06:36:23.948Z,9.25
2023-02-21T06:38:52.294Z,9.28
2023-02-21T06:41:21.220Z,9.14
2023-02-21T06:43:47.824Z,9.18
2023-02-21T06:46:18.961Z,9.27
2023-02-21T06:48:45.567Z,9.30
2023-02-21T06:51:14.640Z,9.26
2023-02-21T06:53:42.083Z,8.81
2023-02-21T06:56:09.211Z,9.14
2023-02-21T06:58:35.841Z,9.20
2023-02-21T07:01:02.913Z,9.28
2023-02-21T07:03:29.508Z,8.55
2023-02-21T07:05:56.009Z,9.21
2023-02-21T07:08:22.546Z,9.32
2023-02-21T07:10:49.151Z,9.24
2023-02-21T07:13:15.648Z,9.30
2023-02-21T07:15:42.188Z,9.27
2023-02-21T07:18:08.754Z,9.28
2023-02-21T07:20:35.319Z,9.21
2023-02-21T07:23:01.855Z,8.84
2023-02-21T07:25:28.396Z,9.27
2023-02-21T07:27:54.901Z,9.28
2023-02-21T07:30:21.791Z,9.27
2023-02-21T07:32:48.364Z,9.30
2023-02-21T07:35:14.921Z,9.37
2023-02-21T07:37:41.481Z,9.29
2023-02-21T07:40:08.338Z,9.35
2023-02-21T07:42:34.978Z,9.14
2023-02-21T07:45:01.858Z,8.77
2023-02-21T07:47:28.545Z,9.28
2023-02-21T07:49:55.132Z,9.18
2023-02-21T07:52:22.995Z,9.18
2023-02-21T07:54:49.791Z,8.81
2023-02-21T07:57:18.077Z,9.30
2023-02-21T07:59:44.775Z,9.34
2023-02-21T08:02:12.260Z,9.34
2023-02-21T08:04:39.324Z,8.92
2023-02-21T08:07:06.201Z,8.90
2023-02-21T08:09:33.405Z,9.27
2023-02-21T08:12:00.215Z,9.35
2023-02-21T08:14:26.893Z,9.38
2023-02-21T08:16:53.439Z,9.36
2023-02-21T08:19:20.171Z,8.91
2023-02-21T08:21:48.136Z,9.22
2023-02-21T08:24:15.776Z,8.93
2023-02-21T08:26:45.275Z,9.07
2023-02-21T08:29:13.343Z,9.49
2023-02-21T08:31:41.451Z,9.51
2023-02-21T08:34:08.476Z,9.49
2023-02-21T08:36:40.350Z,9.00
2023-02-21T08:39:08.032Z,9.47
2023-02-21T08:41:39.796Z,8.93
2023-02-21T08:44:07.618Z,9.36
2023-02-21T08:46:34.953Z,9.24
2023-02-21T08:49:03.431Z,9.36
2023-02-21T08:51:31.949Z,9.37
2023-02-21T08:53:59.386Z,9.31
2023-02-21T08:56:27.039Z,8.82
2023-02-21T08:58:54.982Z,9.39
2023-02-21T09:01:23.476Z,9.05
2023-02-21T09:03:50.550Z,9.06
2023-02-21T09:06:17.833Z,9.37
2023-02-21T09:08:44.332Z,9.25
2023-02-21T09:11:10.978Z,9.10
2023-02-21T09:13:37.510Z,8.80
2023-02-21T09:16:04.519Z,8.90
2023-02-21T09:18:32.510Z,9.34
2023-02-21T09:20:59.318Z,9.06
2023-02-21T09:23:28.301Z,9.30
2023-02-21T09:25:55.263Z,9.37
2023-02-21T09:28:22.211Z,9.42
2023-02-21T09:30:49.777Z,9.41
2023-02-21T09:33:16.706Z,8.86
2023-02-21T09:35:43.374Z,9.40
2023-02-21T09:38:10.372Z,9.35
2023-02-21T09:40:45.522Z,9.39
2023-02-21T09:43:16.437Z,9.05
2023-02-21T09:45:44.701Z,9.37
2023-02-21T09:48:15.074Z,9.36
2023-02-21T09:50:46.150Z,9.43
2023-02-21T09:53:18.796Z,9.09
2023-02-21T09:55:46.262Z,9.45
2023-02-21T09:58:15.430Z,9.48
2023-02-21T10:00:44.078Z,9.51
2023-02-21T10:03:34.472Z,9.56
2023-02-21T10:06:19.822Z,9.59
2023-02-21T10:09:41.740Z,9.47
2023-02-21T10:12:22.161Z,8.87
2023-02-21T10:15:12.955Z,9.54
2023-02-21T10:18:04.709Z,9.29
2023-02-21T10:20:51.306Z,9.51
2023-02-21T10:23:30.961Z,9.51
2023-02-21T10:26:03.977Z,8.82
2023-02-21T10:28:30.582Z,9.45
2023-02-21T10:31:07.399Z,9.67
2023-02-21T10:33:38.422Z,9.70
2023-02-21T10:36:13.947Z,9.32
2023-02-21T10:38:43.595Z,9.27
2023-02-21T10:41:11.317Z,9.44
2023-02-21T10:43:48.466Z,9.90
2023-02-21T10:46:25.064Z,9.93
2023-02-21T10:48:55.311Z,9.88
2023-02-21T10:51:32.879Z,9.55
2023-02-21T10:54:19.190Z,10.10
2023-02-21T10:56:46.148Z,9.58
2023-02-21T10:59:25.402Z,9.92
2023-02-21T11:01:53.472Z,10.08
2023-02-21T11:04:19.977Z,10.23
2023-02-21T11:06:49.638Z,10.16
2023-02-21T11:09:36.556Z,10.10
2023-02-21T11:12:05.265Z,10.31
2023-02-21T11:14:33.453Z,10.27
2023-02-21T11:17:15.317Z,10.33
2023-02-21T11:19:42.959Z,10.38
2023-02-21T11:22:09.890Z,10.40
2023-02-21T11:24:58.186Z,10.48
2023-02-21T11:27:25.542Z,10.52
2023-02-21T11:29:53.940Z,10.42
2023-02-21T11:32:29.687Z,10.59
2023-02-21T11:35:08.594Z,10.59
2023-02-21T11:37:49.660Z,10.61
2023-02-21T11:40:42.533Z,10.52
2023-02-21T11:43:12.135Z,10.56
2023-02-21T11:45:44.922Z,10.49
2023-02-21T11:48:16.563Z,10.74
2023-02-21T11:50:50.191Z,10.26
2023-02-21T11:53:23.016Z,10.60
2023-02-21T11:56:34.795Z,10.78
2023-02-21T11:59:17.648Z,10.88
2023-02-21T12:01:47.166Z,10.81
2023-02-21T12:04:43.575Z,10.41
2023-02-21T12:07:49.843Z,10.75
2023-02-21T12:10:42.241Z,10.26
2023-02-21T12:13:24.797Z,10.86
2023-02-21T12:16:06.643Z,10.86
2023-02-21T12:18:51.373Z,10.78
2023-02-21T12:21:47.064Z,10.74
2023-02-21T12:24:27.760Z,10.70
2023-02-21T12:27:12.449Z,10.53
2023-02-21T12:30:08.621Z,10.48
2023-02-21T12:32:38.187Z,10.66
2023-02-21T12:35:23.092Z,10.59
2023-02-21T12:38:08.455Z,10.65
2023-02-21T12:41:19.758Z,10.76
2023-02-21T12:44:08.179Z,10.22
2023-02-21T12:46:40.679Z,10.73
2023-02-21T12:49:20.741Z,10.81
2023-02-21T12:51:54.308Z,10.78
2023-02-21T12:54:33.236Z,10.82
2023-02-21T12:57:05.359Z,10.44
2023-02-21T12:59:50.885Z,10.91
2023-02-21T13:02:38.700Z,10.92
2023-02-21T13:05:21.070Z,10.40
2023-02-21T13:08:20.933Z,10.88
2023-02-21T13:11:09.797Z,10.90
2023-02-21T13:13:36.867Z,10.87
2023-02-21T13:16:11.330Z,10.64
2023-02-21T13:18:44.339Z,10.89
2023-02-21T13:21:38.822Z,10.48
2023-02-21T13:24:31.046Z,10.72
2023-02-21T13:27:34.878Z,10.91
2023-02-21T13:30:12.314Z,10.94
2023-02-21T13:32:40.657Z,10.90
2023-02-21T13:35:10.007Z,10.93
2023-02-21T13:37:45.441Z,10.68
2023-02-21T13:40:39.251Z,10.61
2023-02-21T13:43:26.035Z,11.18
2023-02-21T13:45:52.896Z,11.24
2023-02-21T13:48:24.013Z,11.39
2023-02-21T13:50:53.470Z,11.32
2023-02-21T13:53:33.141Z,11.01
2023-02-21T13:55:59.867Z,11.47
2023-02-21T13:58:43.603Z,11.33
2023-02-21T14:01:39.761Z,11.49
2023-02-21T14:04:43.978Z,11.51
2023-02-21T14:07:10.594Z,11.43
2023-02-21T14:09:41.922Z,11.56
2023-02-21T14:12:12.589Z,11.28
2023-02-21T14:14:39.867Z,11.56
2023-02-21T14:17:10.416Z,11.46
2023-02-21T14:19:48.325Z,11.37
2023-02-21T14:22:25.194Z,11.42
2023-02-21T14:25:03.945Z,11.38
2023-02-21T14:27:33.972Z,11.52
2023-02-21T14:30:12.818Z,11.46
2023-02-21T14:32:46.898Z,11.31
2023-02-21T14:35:16.347Z,11.30
2023-02-21T14:37:51.575Z,10.66
2023-02-21T14:40:31.428Z,11.28
2023-02-21T14:43:30.621Z,11.33
2023-02-21T14:45:57.118Z,11.31
2023-02-21T14:48:53.285Z,11.19
2023-02-21T14:51:38.496Z,11.11
2023-02-21T14:54:19.346Z,11.05
2023-02-21T14:57:04.014Z,11.01
2023-02-21T14:59:51.798Z,11.01
2023-02-21T15:02:37.047Z,10.94
2023-02-21T15:05:09.756Z,10.79
2023-02-21T15:07:48.593Z,10.79
2023-02-21T15:10:22.008Z,10.75
2023-02-21T15:12:49.915Z,10.38
2023-02-21T15:15:42.933Z,10.59
2023-02-21T15:18:10.886Z,10.55
2023-02-21T15:20:40.861Z,10.48
2023-02-21T15:23:29.421Z,10.42
2023-02-21T15:25:58.566Z,9.99
2023-02-21T15:28:33.892Z,9.82
2023-02-21T15:31:07.908Z,9.94
2023-02-21T15:33:40.852Z,10.30
2023-02-21T15:36:18.278Z,10.29
2023-02-21T15:39:05.837Z,10.29
2023-02-21T15:41:45.856Z,9.91
2023-02-21T15:44:27.321Z,10.02
2023-02-21T15:46:59.342Z,10.28
2023-02-21T15:49:30.005Z,10.30
2023-02-21T15:51:56.819Z,10.33
2023-02-21T15:54:25.337Z,10.39
2023-02-21T15:57:24.738Z,10.37
2023-02-21T16:00:18.968Z,10.34
2023-02-21T16:02:45.754Z,10.32
2023-02-21T16:05:25.948Z,10.31
2023-02-21T16:07:54.086Z,10.28
2023-02-21T16:10:23.470Z,10.32
2023-02-21T16:12:59.868Z,10.33
2023-02-21T16:15:32.844Z,10.33
2023-02-21T16:18:03.490Z,10.19
2023-02-21T16:20:35.590Z,10.17
2023-02-21T16:23:20.176Z,10.18
2023-02-21T16:26:00.519Z,10.16
2023-02-21T16:28:28.179Z,9.70
2023-02-21T16:30:58.272Z,9.96
2023-02-21T16:33:26.618Z,9.98
2023-02-21T16:35:53.537Z,10.01
2023-02-21T16:38:24.721Z,9.89
2023-02-21T16:40:58.792Z,9.91
2023-02-21T16:43:31.164Z,9.59
2023-02-21T16:45:59.235Z,9.82
2023-02-21T16:48:33.101Z,9.83
2023-02-21T16:51:04.831Z,9.39
2023-02-21T16:53:31.647Z,9.43
2023-02-21T16:55:59.945Z,9.56
2023-02-21T16:58:46.123Z,9.75
2023-02-21T17:01:33.504Z,9.62
2023-02-21T17:04:02.404Z,9.73
2023-02-21T17:06:29.175Z,9.51
2023-02-21T17:08:55.732Z,9.68
2023-02-21T17:11:22.416Z,9.68
2023-02-21T17:13:48.955Z,8.99
2023-02-21T17:16:15.557Z,9.67
2023-02-21T17:18:44.228Z,9.04
2023-02-21T17:21:11.585Z,9.60
2023-02-21T17:23:38.244Z,9.58
2023-02-21T17:26:04.883Z,9.36
2023-02-21T17:28:31.515Z,9.49
2023-02-21T17:30:58.104Z,9.36
2023-02-21T17:33:24.762Z,9.27
2023-02-21T17:35:53.313Z,9.43
2023-02-21T17:38:19.875Z,9.30
2023-02-21T17:40:46.566Z,8.98
2023-02-21T17:43:16.077Z,8.74
2023-02-21T17:45:42.670Z,8.96
2023-02-21T17:48:09.313Z,9.48
2023-02-21T17:50:35.923Z,9.49
2023-02-21T17:53:02.536Z,9.40
2023-02-21T17:55:30.131Z,9.48
2023-02-21T17:57:57.536Z,9.34
2023-02-21T18:00:26.306Z,9.46
2023-02-21T18:02:54.377Z,9.09
2023-02-21T18:05:21.183Z,9.35
2023-02-21T18:07:49.860Z,9.24
2023-02-21T18:10:18.791Z,9.43
2023-02-21T18:12:45.520Z,9.43
2023-02-21T18:15:12.380Z,9.52
2023-02-21T18:17:40.786Z,9.33
2023-02-21T18:20:09.768Z,9.03
2023-02-21T18:22:37.982Z,8.97
2023-02-21T18:25:05.501Z,9.41
2023-02-21T18:27:32.173Z,9.39
2023-02-21T18:29:58.930Z,8.86
2023-02-21T18:32:26.309Z,9.03
2023-02-21T18:34:53.034Z,9.45
2023-02-21T18:37:19.923Z,8.95
2023-02-21T18:39:46.535Z,9.23
2023-02-21T18:42:13.156Z,9.00
2023-02-21T18:44:39.799Z,8.98
2023-02-21T18:47:06.455Z,9.04
2023-02-21T18:49:38.525Z,8.98
2023-02-21T18:52:07.120Z,9.18
2023-02-21T18:54:34.164Z,8.92
2023-02-21T18:57:00.773Z,8.44
2023-02-21T18:59:27.897Z,8.98
2023-02-21T19:01:55.333Z,8.40
2023-02-21T19:04:22.337Z,8.65
2023-02-21T19:06:48.908Z,8.88
2023-02-21T19:09:15.427Z,8.96
2023-02-21T19:11:42.825Z,8.88
2023-02-21T19:14:09.496Z,8.62
2023-02-21T19:16:36.188Z,8.37
2023-02-21T19:19:05.761Z,8.49
2023-02-21T19:21:32.453Z,8.78
2023-02-21T19:23:59.304Z,8.69
2023-02-21T19:26:29.686Z,8.85
2023-02-21T19:28:56.668Z,8.70
2023-02-21T19:31:23.511Z,8.27
2023-02-21T19:33:50.612Z,8.70
2023-02-21T19:36:17.201Z,8.32
2023-02-21T19:38:43.842Z,8.27
2023-02-21T19:41:10.577Z,8.57
2023-02-21T19:43:37.706Z,8.51
2023-02-21T19:46:04.566Z,8.66
2023-02-21T19:48:31.237Z,8.65
2023-02-21T19:50:57.814Z,8.66
2023-02-21T19:53:24.527Z,8.31
2023-02-21T19:55:51.027Z,8.53
2023-02-21T19:58:19.931Z,8.59
2023-02-21T20:00:47.044Z,8.57
2023-02-21T20:03:13.863Z,8.65
2023-02-21T20:05:40.515Z,8.53
2023-02-21T20:08:07.140Z,8.46
2023-02-21T20:10:33.905Z,8.06
2023-02-21T20:13:02.362Z,8.05
2023-02-21T20:15:28.998Z,8.58
2023-02-21T20:17:55.710Z,8.66
2023-02-21T20:20:22.259Z,8.54
2023-02-21T20:22:48.788Z,8.55
2023-02-21T20:25:15.443Z,8.47
2023-02-21T20:27:42.064Z,8.42
2023-02-21T20:30:09.594Z,8.05
2023-02-21T20:32:36.305Z,8.10
2023-02-21T20:35:03.755Z,8.58
2023-02-21T20:37:32.430Z,8.44
2023-02-21T20:39:59.726Z,8.39
2023-02-21T20:42:27.469Z,7.92
2023-02-21T20:44:55.069Z,8.46
2023-02-21T20:47:21.732Z,7.92
2023-02-21T20:49:48.340Z,8.45
2023-02-21T20:52:16.348Z,8.42
2023-02-21T20:54:43.240Z,8.30
2023-02-21T20:57:09.928Z,8.51
2023-02-21T20:59:38.747Z,8.54
2023-02-21T21:02:06.357Z,8.50
2023-02-21T21:04:35.931Z,8.35
2023-02-21T21:07:06.508Z,8.44
2023-02-21T21:09:37.503Z,8.53
2023-02-21T21:12:10.794Z,8.04
2023-02-21T21:14:41.499Z,8.41
2023-02-21T21:17:08.479Z,8.15
2023-02-21T21:19:35.142Z,8.35
2023-02-21T21:22:04.995Z,7.88
2023-02-21T21:24:32.099Z,8.39
2023-02-21T21:27:06.274Z,8.21
2023-02-21T21:29:36.335Z,8.41
2023-02-21T21:32:05.330Z,8.36
2023-02-21T21:34:33.130Z,8.25
2023-02-21T21:37:02.415Z,7.91
2023-02-21T21:39:29.016Z,8.37
2023-02-21T21:42:08.526Z,7.90
2023-02-21T21:44:43.797Z,8.34
2023-02-21T21:47:10.335Z,8.09
2023-02-21T21:49:37.271Z,8.21
2023-02-21T21:52:04.657Z,8.38
2023-02-21T21:54:35.750Z,8.19
2023-02-21T21:57:04.418Z,8.27
2023-02-21T21:59:32.436Z,8.40
2023-02-21T22:01:59.508Z,7.92
2023-02-21T22:04:27.154Z,8.26
2023-02-21T22:06:55.472Z,8.26
2023-02-21T22:09:22.964Z,8.27
2023-02-21T22:11:50.081Z,8.21
2023-02-21T22:14:18.402Z,8.22
2023-02-21T22:16:47.845Z,7.84
2023-02-21T22:19:15.887Z,8.06
2023-02-21T22:21:45.811Z,8.16
2023-02-21T22:24:19.360Z,8.28
2023-02-21T22:26:46.783Z,8.15
2023-02-21T22:29:15.630Z,8.23
2023-02-21T22:31:43.954Z,7.72
2023-02-21T22:34:17.545Z,8.23
2023-02-21T22:36:46.554Z,7.67
2023-02-21T22:39:13.226Z,8.07
2023-02-21T22:41:39.896Z,7.84
2023-02-21T22:44:06.790Z,7.46
2023-02-21T22:46:50.471Z,7.96
2023-02-21T22:49:17.139Z,7.93
2023-02-21T22:51:44.104Z,7.82
2023-02-21T22:54:14.356Z,7.48
2023-02-21T22:56:50.629Z,7.95
2023-02-21T22:59:24.245Z,7.96
2023-02-21T23:01:50.949Z,7.75
2023-02-21T23:04:25.306Z,7.92
2023-02-21T23:06:59.643Z,7.84
2023-02-21T23:09:28.368Z,7.44
2023-02-21T23:11:58.374Z,7.79
2023-02-21T23:14:26.297Z,7.91
2023-02-21T23:16:57.328Z,7.81
2023-02-21T23:19:25.523Z,7.86
2023-02-21T23:21:53.783Z,7.86
2023-02-21T23:24:22.080Z,7.96
2023-02-21T23:26:50.316Z,7.89
2023-02-21T23:29:24.137Z,7.97
2023-02-21T23:31:52.237Z,7.65
2023-02-21T23:34:19.730Z,7.83
2023-02-21T23:36:46.426Z,7.84
2023-02-21T23:39:15.005Z,7.73
2023-02-21T23:41:43.429Z,7.91
2023-02-21T23:44:12.615Z,7.84
2023-02-21T23:46:42.235Z,7.85
2023-02-21T23:49:11.203Z,7.86
2023-02-21T23:51:38.402Z,7.63
2023-02-21T23:54:07.051Z,7.68
2023-02-21T23:56:35.513Z,7.74
2023-02-21T23:59:06.051Z,7.76
